createdAt,value
2022-08-04T00:03:06.780Z,99499.78
2022-08-04T00:06:00.998Z,99510.22
2022-08-04T00:08:53.120Z,99505.84
2022-08-04T00:11:47.275Z,99507.03
2022-08-04T00:14:36.599Z,99509.16
2022-08-04T00:17:30.136Z,99510.34
2022-08-04T00:20:20.924Z,99513.88
2022-08-04T00:23:09.527Z,99524.97
2022-08-04T00:25:58.017Z,99517.25
2022-08-04T00:28:46.514Z,99522.81
2022-08-04T00:31:56.713Z,99525.44
2022-08-04T00:34:43.460Z,99511.03
2022-08-04T00:37:33.277Z,99508.19
2022-08-04T00:40:29.924Z,99513.22
2022-08-04T00:43:24.307Z,99505.25
2022-08-04T00:46:40.385Z,99504.84
2022-08-04T00:50:09.239Z,99507.50
2022-08-04T00:53:10.838Z,99510.81
2022-08-04T00:56:25.787Z,99497.59
2022-08-04T00:59:22.612Z,99505.19
2022-08-04T01:02:17.515Z,99498.88
2022-08-04T01:05:07.859Z,99498.72
2022-08-04T01:08:13.312Z,99498.81
2022-08-04T01:11:08.393Z,99503.09
2022-08-04T01:14:07.037Z,99497.94
2022-08-04T01:17:01.196Z,99503.03
2022-08-04T01:20:06.480Z,99498.44
2022-08-04T01:23:40.484Z,99505.09
2022-08-04T01:26:57.723Z,99498.88
2022-08-04T01:29:51.069Z,99499.19
2022-08-04T01:32:49.615Z,99506.47
2022-08-04T01:35:46.510Z,99490.44
2022-08-04T01:38:37.681Z,99494.44
2022-08-04T01:41:32.910Z,99491.59
2022-08-04T01:44:21.580Z,99488.50
2022-08-04T01:47:11.594Z,99491.47
2022-08-04T01:50:06.335Z,99492.97
2022-08-04T01:52:56.193Z,99494.16
2022-08-04T01:55:55.136Z,99495.13
2022-08-04T01:58:44.092Z,99503.41
2022-08-04T02:01:37.122Z,99499.28
2022-08-04T02:04:27.029Z,99496.81
2022-08-04T02:07:27.453Z,99499.44
2022-08-04T02:13:16.918Z,99492.09
2022-08-04T02:16:09.315Z,99492.41
2022-08-04T02:19:03.134Z,99482.66
2022-08-04T02:21:58.543Z,99483.66
2022-08-04T02:24:51.387Z,99479.19
2022-08-04T02:28:12.686Z,99481.00
2022-08-04T02:31:24.340Z,99476.41
2022-08-04T02:34:22.545Z,99468.34
2022-08-04T02:37:12.497Z,99469.00
2022-08-04T02:40:02.717Z,99471.94
2022-08-04T02:42:51.227Z,99471.59
2022-08-04T02:45:39.859Z,99462.38
2022-08-04T02:48:31.216Z,99466.34
2022-08-04T02:51:24.198Z,99456.28
2022-08-04T02:54:14.657Z,99452.84
2022-08-04T02:57:04.403Z,99460.75
2022-08-04T03:00:07.859Z,99456.59
2022-08-04T03:03:13.809Z,99449.84
2022-08-04T03:06:50.653Z,99455.47
2022-08-04T03:10:13.364Z,99452.47
2022-08-04T03:13:31.273Z,99456.25
2022-08-04T03:17:01.644Z,99458.41
2022-08-04T03:20:33.895Z,99464.53
2022-08-04T03:24:01.167Z,99456.09
2022-08-04T03:27:12.498Z,99465.34
2022-08-04T03:30:09.246Z,99467.00
2022-08-04T03:33:37.679Z,99464.00
2022-08-04T03:36:53.788Z,99463.47
2022-08-04T03:40:26.822Z,99463.78
2022-08-04T03:44:00.001Z,99477.34
2022-08-04T03:47:18.487Z,99480.50
2022-08-04T03:50:43.397Z,99479.69
2022-08-04T03:53:43.822Z,99481.16
2022-08-04T03:57:31.556Z,99485.47
2022-08-04T04:00:21.571Z,99477.41
2022-08-04T04:03:42.085Z,99478.88
2022-08-04T04:07:07.272Z,99479.88
2022-08-04T04:10:14.043Z,99492.75
2022-08-04T04:13:15.422Z,99496.03
2022-08-04T04:16:21.378Z,99491.75
2022-08-04T04:19:26.123Z,99497.03
2022-08-04T04:22:56.885Z,99489.75
2022-08-04T04:25:56.179Z,99494.53
2022-08-04T04:28:58.565Z,99493.88
2022-08-04T04:32:00.777Z,99494.03
2022-08-04T04:34:59.081Z,99497.66
2022-08-04T04:38:12.137Z,99507.84
2022-08-04T04:41:26.668Z,99497.13
2022-08-04T04:44:49.537Z,99500.91
2022-08-04T04:48:08.850Z,99495.94
2022-08-04T04:51:07.138Z,99502.56
2022-08-04T04:54:00.477Z,99511.75
2022-08-04T04:56:52.582Z,99498.88
2022-08-04T04:59:46.237Z,99508.13
2022-08-04T05:03:28.321Z,99507.16
2022-08-04T05:06:30.934Z,99501.41
2022-08-04T05:09:43.702Z,99507.00
2022-08-04T05:14:38.229Z,99507.50
2022-08-04T05:16:08.367Z,99506.03
2022-08-04T05:19:04.922Z,99506.69
2022-08-04T05:22:03.506Z,99508.88
2022-08-04T05:24:56.483Z,99514.50
2022-08-04T05:27:47.718Z,99507.91
2022-08-04T05:30:47.047Z,99510.06
2022-08-04T05:33:40.775Z,99514.31
2022-08-04T05:36:41.249Z,99514.09
2022-08-04T05:39:38.167Z,99513.94
2022-08-04T05:42:27.238Z,99509.84
2022-08-04T05:45:15.755Z,99507.03
2022-08-04T05:48:04.966Z,99506.00
2022-08-04T05:50:56.473Z,99505.56
2022-08-04T05:53:49.069Z,99518.06
2022-08-04T05:56:37.812Z,99517.34
2022-08-04T05:59:26.509Z,99513.91
2022-08-04T06:02:16.828Z,99509.72
2022-08-04T06:05:07.704Z,99513.81
2022-08-04T06:08:12.225Z,99515.03
2022-08-04T06:11:06.605Z,99511.16
2022-08-04T06:13:57.931Z,99507.13
2022-08-04T06:16:51.183Z,99501.66
2022-08-04T06:19:59.746Z,99507.38
2022-08-04T06:22:53.562Z,99507.44
2022-08-04T06:25:45.766Z,99507.50
2022-08-04T06:28:35.648Z,99506.81
2022-08-04T06:32:26.932Z,99518.28
2022-08-04T06:34:53.823Z,99522.63
2022-08-04T06:37:44.401Z,99521.25
2022-08-04T06:40:34.436Z,99528.31
2022-08-04T06:43:23.342Z,99526.31
2022-08-04T06:46:14.923Z,99521.91
2022-08-04T06:49:04.729Z,99525.63
2022-08-04T06:51:53.205Z,99528.16
2022-08-04T06:54:41.658Z,99527.84
2022-08-04T06:57:31.643Z,99516.06
2022-08-04T07:00:20.214Z,99522.69
2022-08-04T07:03:10.031Z,99529.50
2022-08-04T07:05:58.528Z,99527.63
2022-08-04T07:08:54.407Z,99532.47
2022-08-04T07:11:44.538Z,99530.34
2022-08-04T07:14:36.010Z,99536.22
2022-08-04T07:17:24.497Z,99533.28
2022-08-04T07:20:34.593Z,99536.03
2022-08-04T07:23:25.872Z,99537.13
2022-08-04T07:26:15.713Z,99533.75
2022-08-04T07:29:04.242Z,99535.22
2022-08-04T07:31:52.866Z,99531.13
2022-08-04T07:34:41.601Z,99530.72
2022-08-04T07:37:39.177Z,99522.09
2022-08-04T07:40:28.706Z,99526.38
2022-08-04T07:43:17.391Z,99524.50
2022-08-04T07:46:06.015Z,99528.50
2022-08-04T07:48:55.548Z,99529.31
2022-08-04T07:51:44.084Z,99530.72
2022-08-04T07:54:34.121Z,99530.03
2022-08-04T07:57:40.714Z,99526.28
2022-08-04T08:00:30.422Z,99529.13
2022-08-04T08:03:21.639Z,99525.00
2022-08-04T08:06:31.725Z,99533.78
2022-08-04T08:09:21.229Z,99527.81
2022-08-04T08:12:35.189Z,99520.97
2022-08-04T08:15:20.497Z,99524.75
2022-08-04T08:18:08.999Z,99522.78
2022-08-04T08:20:57.586Z,99527.06
2022-08-04T08:23:46.094Z,99526.94
2022-08-04T08:26:36.069Z,99526.34
2022-08-04T08:29:25.972Z,99521.84
2022-08-04T08:32:14.516Z,99526.25
2022-08-04T08:35:03.041Z,99523.09
2022-08-04T08:37:56.344Z,99521.69
2022-08-04T08:40:59.627Z,99515.75
2022-08-04T08:44:06.228Z,99516.25
2022-08-04T08:47:09.470Z,99513.06
2022-08-04T08:50:47.537Z,99512.91
2022-08-04T08:54:14.605Z,99520.47
2022-08-04T08:57:18.400Z,99516.31
2022-08-04T09:00:14.106Z,99512.59
2022-08-04T09:03:40.063Z,99516.97
2022-08-04T09:06:55.364Z,99519.63
2022-08-04T09:09:54.403Z,99520.56
2022-08-04T09:12:51.529Z,99514.44
2022-08-04T09:15:45.784Z,99513.78
2022-08-04T09:18:38.970Z,99512.59
2022-08-04T09:21:33.175Z,99514.22
2022-08-04T09:24:35.381Z,99516.81
2022-08-04T09:27:28.541Z,99511.69
2022-08-04T09:30:20.247Z,99521.63
2022-08-04T09:33:16.255Z,99524.28
2022-08-04T09:36:09.694Z,99518.69
2022-08-04T09:39:13.165Z,99524.38
2022-08-04T09:42:16.284Z,99518.78
2022-08-04T09:45:13.446Z,99519.44
2022-08-04T09:48:11.208Z,99520.19
2022-08-04T09:51:00.732Z,99516.59
2022-08-04T09:53:58.757Z,99515.78
2022-08-04T09:56:55.315Z,99512.25
2022-08-04T09:59:49.242Z,99514.50
2022-08-04T10:02:39.765Z,99505.34
2022-08-04T10:05:39.349Z,99507.28
2022-08-04T10:08:39.959Z,99506.28
2022-08-04T10:11:55.448Z,99509.88
2022-08-04T10:14:53.896Z,99500.41
2022-08-04T10:18:10.841Z,99501.56
2022-08-04T10:21:11.609Z,99495.38
2022-08-04T10:24:15.547Z,99498.81
2022-08-04T10:27:10.523Z,99500.69
2022-08-04T10:30:03.776Z,99489.25
2022-08-04T10:32:59.797Z,99489.75
2022-08-04T10:35:51.615Z,99488.25
2022-08-04T10:38:47.071Z,99481.16
2022-08-04T10:41:39.429Z,99481.09
2022-08-04T10:44:41.889Z,99487.44
2022-08-04T10:47:36.240Z,99487.75
2022-08-04T10:50:25.481Z,99487.00
2022-08-04T10:53:18.407Z,99478.50
2022-08-04T10:56:12.121Z,99481.22
2022-08-04T10:59:04.240Z,99471.47
2022-08-04T11:02:01.559Z,99475.22
2022-08-04T11:04:57.731Z,99489.63
2022-08-04T11:07:48.439Z,99479.69
2022-08-04T11:10:41.361Z,99460.03
2022-08-04T11:13:35.219Z,99461.75
2022-08-04T11:16:27.454Z,99459.38
2022-08-04T11:19:45.298Z,99460.00
2022-08-04T11:22:38.076Z,99465.41
2022-08-04T11:25:29.028Z,99463.66
2022-08-04T11:28:34.230Z,99467.72
2022-08-04T11:31:24.939Z,99466.09
2022-08-04T11:34:22.302Z,99469.31
2022-08-04T11:37:15.034Z,99468.19
2022-08-04T11:40:10.628Z,99457.00
2022-08-04T11:43:02.915Z,99462.91
2022-08-04T11:45:55.780Z,99459.66
2022-08-04T11:48:54.036Z,99457.81
2022-08-04T11:51:44.105Z,99451.00
2022-08-04T11:54:33.560Z,99449.28
2022-08-04T11:57:22.805Z,99454.78
2022-08-04T12:00:24.103Z,99450.69
2022-08-04T12:03:32.529Z,99457.69
2022-08-04T12:06:30.135Z,99453.84
2022-08-04T12:09:28.491Z,99449.63
2022-08-04T12:12:22.170Z,99447.94
2022-08-04T12:15:27.914Z,99452.00
2022-08-04T12:18:22.766Z,99437.47
2022-08-04T12:21:16.908Z,99431.31
2022-08-04T12:24:13.943Z,99425.94
2022-08-04T12:27:11.729Z,99424.88
2022-08-04T12:30:59.925Z,99422.44
2022-08-04T12:33:17.864Z,99412.94
2022-08-04T12:36:21.014Z,99423.19
2022-08-04T12:39:14.070Z,99411.53
2022-08-04T12:42:19.492Z,99414.25
2022-08-04T12:45:10.262Z,99410.22
2022-08-04T12:48:00.728Z,99410.78
2022-08-04T12:50:49.965Z,99409.16
2022-08-04T12:53:51.368Z,99410.81
2022-08-04T12:56:40.725Z,99399.97
2022-08-04T12:59:30.695Z,99401.06
2022-08-04T13:02:25.216Z,99405.91
2022-08-04T13:05:16.780Z,99396.16
2022-08-04T13:08:06.181Z,99397.75
2022-08-04T13:10:55.030Z,99396.13
2022-08-04T13:13:43.574Z,99400.72
2022-08-04T13:16:34.178Z,99389.38
2022-08-04T13:19:22.706Z,99380.47
2022-08-04T13:22:12.110Z,99375.91
2022-08-04T13:26:41.623Z,99382.13
2022-08-04T13:28:14.427Z,99372.34
2022-08-04T13:31:06.418Z,99373.16
2022-08-04T13:34:05.217Z,99378.84
2022-08-04T13:36:56.202Z,99368.00
2022-08-04T13:39:55.709Z,99364.81
2022-08-04T13:42:48.218Z,99359.91
2022-08-04T13:45:36.772Z,99353.97
2022-08-04T13:48:32.433Z,99351.53
2022-08-04T13:51:23.843Z,99346.41
2022-08-04T13:54:42.420Z,99354.25
2022-08-04T13:57:32.211Z,99349.91
2022-08-04T14:00:29.900Z,99347.47
2022-08-04T14:03:26.135Z,99341.78
2022-08-04T14:06:17.153Z,99339.63
2022-08-04T14:09:14.791Z,99327.94
2022-08-04T14:12:38.992Z,99334.34
2022-08-04T14:16:01.282Z,99338.88
2022-08-04T14:19:00.443Z,99333.16
2022-08-04T14:21:49.708Z,99337.72
2022-08-04T14:24:39.594Z,99329.09
2022-08-04T14:27:29.833Z,99327.22
2022-08-04T14:30:26.680Z,99325.88
2022-08-04T14:34:02.631Z,99308.06
2022-08-04T14:36:24.107Z,99318.13
2022-08-04T14:39:14.106Z,99309.00
2022-08-04T14:42:04.013Z,99308.44
2022-08-04T14:44:56.686Z,99303.06
2022-08-04T14:47:52.820Z,99306.38
2022-08-04T14:50:43.420Z,99297.44
2022-08-04T14:53:32.056Z,99306.88
2022-08-04T14:56:37.818Z,99301.97
2022-08-04T14:59:42.007Z,99295.50
2022-08-04T15:02:47.842Z,99291.16
2022-08-04T15:06:02.651Z,99299.25
2022-08-04T15:08:47.350Z,99292.22
2022-08-04T15:11:40.178Z,99293.88
2022-08-04T15:14:37.670Z,99297.13
2022-08-04T15:17:29.926Z,99291.19
2022-08-04T15:20:18.883Z,99291.72
2022-08-04T15:23:10.788Z,99288.97
2022-08-04T15:26:01.538Z,99285.72
2022-08-04T15:28:52.829Z,99279.03
2022-08-04T15:32:07.330Z,99272.25
2022-08-04T15:34:53.128Z,99279.00
2022-08-04T15:37:50.506Z,99276.25
2022-08-04T15:40:46.724Z,99279.75
2022-08-04T15:43:55.392Z,99272.22
2022-08-04T15:47:13.391Z,99271.66
2022-08-04T15:50:10.045Z,99269.78
2022-08-04T15:53:10.422Z,99265.78
2022-08-04T15:56:01.715Z,99261.19
2022-08-04T15:58:52.828Z,99266.88
2022-08-04T16:01:41.561Z,99265.22
2022-08-04T16:04:52.248Z,99261.41
2022-08-04T16:07:56.680Z,99253.00
2022-08-04T16:10:49.879Z,99257.06
2022-08-04T16:13:38.351Z,99249.50
2022-08-04T16:16:28.538Z,99252.41
2022-08-04T16:19:35.205Z,99246.16
2022-08-04T16:22:37.861Z,99241.25
2022-08-04T16:25:46.453Z,99243.94
2022-08-04T16:28:40.404Z,99233.94
2022-08-04T16:31:28.909Z,99243.38
2022-08-04T16:34:48.457Z,99241.72
2022-08-04T16:37:35.903Z,99236.31
2022-08-04T16:40:38.557Z,99227.19
2022-08-04T16:43:29.649Z,99226.66
2022-08-04T16:46:41.236Z,99223.94
2022-08-04T16:49:51.920Z,99228.84
2022-08-04T16:52:45.185Z,99230.44
2022-08-04T16:55:33.636Z,99233.63
2022-08-04T16:58:32.928Z,99237.91
2022-08-04T17:01:33.678Z,99236.78
2022-08-04T17:04:29.967Z,99231.91
2022-08-04T17:07:18.484Z,99238.09
2022-08-04T17:10:09.279Z,99222.97
2022-08-04T17:13:20.652Z,99220.28
2022-08-04T17:16:13.125Z,99229.22
2022-08-04T17:19:02.445Z,99223.50
2022-08-04T17:21:50.889Z,99225.41
2022-08-04T17:24:40.709Z,99222.72
2022-08-04T17:28:19.192Z,99225.41
2022-08-04T17:30:39.671Z,99225.09
2022-08-04T17:33:54.299Z,99225.31
2022-08-04T17:36:44.002Z,99218.28
2022-08-04T17:39:34.980Z,99219.34
2022-08-04T17:42:35.499Z,99218.47
2022-08-04T17:45:50.675Z,99220.28
2022-08-04T17:48:33.694Z,99218.91
2022-08-04T17:52:05.606Z,99216.66
2022-08-04T17:54:37.104Z,99212.97
2022-08-04T17:57:28.104Z,99214.91
2022-08-04T18:00:19.686Z,99223.66
2022-08-04T18:03:08.508Z,99228.53
2022-08-04T18:06:03.353Z,99222.00
2022-08-04T18:08:58.779Z,99223.31
2022-08-04T18:11:57.798Z,99215.72
2022-08-04T18:14:49.134Z,99210.69
2022-08-04T18:18:20.776Z,99227.00
2022-08-04T18:20:49.967Z,99219.75
2022-08-04T18:23:50.534Z,99229.22
2022-08-04T18:26:40.059Z,99227.09
2022-08-04T18:29:31.872Z,99225.56
2022-08-04T18:32:23.855Z,99228.63
2022-08-04T18:35:23.689Z,99235.28
2022-08-04T18:38:32.122Z,99227.13
2022-08-04T18:41:20.619Z,99233.91
2022-08-04T18:44:09.169Z,99237.69
2022-08-04T18:51:00.120Z,99240.50
2022-08-04T18:53:20.517Z,99241.34
2022-08-04T18:56:19.996Z,99239.00
2022-08-04T18:59:17.708Z,99243.25
2022-08-04T19:02:16.732Z,99244.63
2022-08-04T19:05:06.539Z,99238.19
2022-08-04T19:08:02.394Z,99248.97
2022-08-04T19:11:01.577Z,99242.88
2022-08-04T19:14:13.691Z,99251.19
2022-08-04T19:17:02.424Z,99256.94
2022-08-04T19:20:02.943Z,99261.66
2022-08-04T19:24:27.077Z,99263.53
2022-08-04T19:26:04.968Z,99273.78
2022-08-04T19:28:56.868Z,99262.50
2022-08-04T19:31:45.371Z,99265.34
2022-08-04T19:34:35.070Z,99285.03
2022-08-04T19:37:55.953Z,99288.69
2022-08-04T19:40:32.775Z,99277.44
2022-08-04T19:43:23.934Z,99286.84
2022-08-04T19:46:12.609Z,99285.25
2022-08-04T19:49:01.285Z,99289.53
2022-08-04T19:51:51.803Z,99280.72
2022-08-04T19:54:43.227Z,99280.50
2022-08-04T19:57:41.323Z,99278.47
2022-08-04T20:00:33.731Z,99285.81
2022-08-04T20:03:23.004Z,99294.59
2022-08-04T20:06:31.499Z,99280.50
2022-08-04T20:09:25.859Z,99278.22
2022-08-04T20:12:15.409Z,99275.34
2022-08-04T20:15:04.447Z,99276.78
2022-08-04T20:18:07.514Z,99292.34
2022-08-04T20:21:02.825Z,99289.69
2022-08-04T20:23:51.356Z,99287.25
2022-08-04T20:26:39.894Z,99292.56
2022-08-04T20:29:40.198Z,99299.91
2022-08-04T20:32:29.703Z,99301.53
2022-08-04T20:35:19.736Z,99310.69
2022-08-04T20:38:08.257Z,99314.56
2022-08-04T20:41:18.939Z,99311.53
2022-08-04T20:44:10.779Z,99305.16
2022-08-04T20:46:59.520Z,99297.16
2022-08-04T20:49:50.197Z,99298.56
2022-08-04T20:52:42.090Z,99292.41
2022-08-04T20:55:30.624Z,99296.50
2022-08-04T20:58:19.114Z,99295.25
2022-08-04T21:01:15.861Z,99294.84
2022-08-04T21:04:28.286Z,99291.16
2022-08-04T21:07:17.768Z,99292.81
2022-08-04T21:10:08.875Z,99309.38
2022-08-04T21:12:57.376Z,99308.38
2022-08-04T21:15:57.832Z,99304.50
2022-08-04T21:18:47.408Z,99310.66
2022-08-04T21:21:38.060Z,99319.50
2022-08-04T21:24:27.123Z,99314.41
2022-08-04T21:27:17.049Z,99312.59
2022-08-04T21:30:08.876Z,99312.59
2022-08-04T21:33:12.853Z,99316.47
2022-08-04T21:36:03.163Z,99321.53
2022-08-04T21:38:52.481Z,99317.00
2022-08-04T21:42:10.213Z,99306.34
2022-08-04T21:44:51.457Z,99313.03
2022-08-04T21:47:46.687Z,99308.91
2022-08-04T21:50:38.299Z,99311.53
2022-08-04T21:53:30.281Z,99308.00
2022-08-04T21:56:18.859Z,99310.44
2022-08-04T21:59:15.312Z,99324.72
2022-08-04T22:02:05.486Z,99315.34
2022-08-04T22:04:56.510Z,99311.47
2022-08-04T22:07:50.371Z,99308.44
2022-08-04T22:10:40.161Z,99309.50
2022-08-04T22:13:52.640Z,99314.41
2022-08-04T22:16:41.429Z,99309.72
2022-08-04T22:19:50.789Z,99315.03
2022-08-04T22:22:41.040Z,99326.69
2022-08-04T22:25:31.368Z,99333.00
2022-08-04T22:28:19.916Z,99328.91
2022-08-04T22:31:23.769Z,99323.81
2022-08-04T22:34:12.975Z,99340.13
2022-08-04T22:37:02.817Z,99333.38
2022-08-04T22:40:01.074Z,99334.94
2022-08-04T22:42:50.280Z,99340.22
2022-08-04T22:45:45.169Z,99329.56
2022-08-04T22:48:34.314Z,99331.78
2022-08-04T22:51:23.066Z,99327.63
2022-08-04T22:54:17.269Z,99325.13
2022-08-04T22:57:06.222Z,99323.84
2022-08-04T22:59:56.710Z,99325.47
2022-08-04T23:02:49.554Z,99333.13
2022-08-04T23:05:38.267Z,99337.41
2022-08-04T23:08:26.798Z,99336.72
2022-08-04T23:11:20.807Z,99332.16
2022-08-04T23:14:09.267Z,99328.47
2022-08-04T23:16:57.753Z,99330.84
2022-08-04T23:19:57.624Z,99330.63
2022-08-04T23:22:47.409Z,99323.22
2022-08-04T23:26:08.338Z,99333.22
2022-08-04T23:28:56.392Z,99345.03
2022-08-04T23:31:59.034Z,99360.31
2022-08-04T23:34:49.074Z,99356.84
2022-08-04T23:37:37.627Z,99375.22
2022-08-04T23:40:50.292Z,99382.16
2022-08-04T23:43:55.153Z,99392.78
2022-08-04T23:46:45.370Z,99402.75
2022-08-04T23:49:44.559Z,99406.59
2022-08-04T23:52:33.803Z,99428.19
2022-08-04T23:55:23.125Z,99438.50
2022-08-04T23:58:18.604Z,99457.84
